< Typhoon 201606 2016 Season Typhoon 201608 >
Typhoon 201607 (CHANTHU)
General InformationTrack Information on Google MapsDetailed Wind InformationForecast History on Google MapsAccess Analytics MapList of All Images || NewsDisaster Info.WeblogTrackbackTyphoon FrontTwiphoonTyphoon Now!Typhoon ImaginationDisaster Info. XMLResourceGoogle EarthGE AnimationAtom FeedGeoJSON
Detalied Best Track (Time Zone = UTC)
Year Month Day Hour Lat. Long. Pressure (hPa) Wind (kt) Class Image Chart
2016 8 12 00 16.0 137.6 1002 0 2 Image Chart
2016 8 12 06 16.3 138.0 1002 0 2 Image Chart
2016 8 12 12 16.8 138.6 1002 0 2 Image Chart
2016 8 12 18 17.2 139.4 1002 0 2 Image Chart
2016 8 13 00 17.7 139.9 1002 0 2 Image Chart
2016 8 13 06 18.8 140.7 1000 0 2 Image Chart
2016 8 13 12 19.8 141.9 1000 0 2 Image Chart
2016 8 13 18 20.9 142.9 994 35 3 Image Chart
2016 8 14 00 22.0 143.6 994 35 3 Image Chart
2016 8 14 06 23.4 144.2 992 40 3 Image Chart
2016 8 14 12 24.6 144.5 990 45 3 Image Chart
2016 8 14 18 25.7 144.8 985 50 4 Image Chart
2016 8 15 00 27.1 145.0 985 50 4 Image Chart
2016 8 15 06 28.1 144.5 985 50 4 Image Chart
2016 8 15 12 29.4 143.8 985 45 3 Image Chart
2016 8 15 18 30.5 143.0 985 45 3 Image Chart
2016 8 16 00 31.6 142.5 980 50 4 Image Chart
2016 8 16 06 33.4 141.4 980 50 4 Image Chart
2016 8 16 12 34.4 141.0 980 50 4 Image Chart
2016 8 16 18 35.8 141.2 980 50 4 Image Chart
2016 8 17 00 37.8 141.7 980 55 4 Image Chart
2016 8 17 03 39.0 142.2 980 55 4 Image Chart
2016 8 17 06 40.8 142.7 980 55 4 Image Chart
2016 8 17 08 41.8 143.0 980 55 4 Image Chart
2016 8 17 09 42.3 143.1 980 55 4 Image Chart
2016 8 17 12 44.3 143.1 984 55 4 Image Chart
2016 8 17 18 47.7 144.6 984 0 6 Image Chart
2016 8 18 00 51.2 145.3 982 0 6 Image Chart
2016 8 18 06 54.6 146.7 980 0 6 Image Chart
2016 8 18 12 58.1 147.6 982 0 6 Image Chart
2016 8 18 18 60.7 149.1 986 0 6 Image Chart
Japan Meteorological Agency Best Track Data | Correction Date : 2016-09-21
< Typhoon 201606 2016 Season Typhoon 201608 >

Help